createdAt,value
2023-04-13T00:00:33.952Z,0.70
2023-04-13T00:03:03.517Z,0.40
2023-04-13T00:05:34.244Z,0.40
2023-04-13T00:08:03.398Z,0.45
2023-04-13T00:10:36.392Z,0.50
2023-04-13T00:13:07.021Z,0.52
2023-04-13T00:15:36.955Z,0.50
2023-04-13T00:18:06.773Z,0.60
2023-04-13T00:20:35.497Z,0.68
2023-04-13T00:23:04.412Z,0.63
2023-04-13T00:25:32.934Z,0.50
2023-04-13T00:28:03.395Z,0.65
2023-04-13T00:30:33.373Z,0.85
2023-04-13T00:33:04.508Z,0.60
2023-04-13T00:35:32.875Z,0.60
2023-04-13T00:38:02.631Z,0.50
2023-04-13T00:40:31.147Z,0.65
2023-04-13T00:43:00.628Z,0.57
2023-04-13T00:45:29.288Z,0.60
2023-04-13T00:48:00.104Z,0.70
2023-04-13T00:50:29.225Z,0.80
2023-04-13T00:52:58.207Z,0.90
2023-04-13T00:55:27.676Z,0.70
2023-04-13T00:57:57.852Z,0.65
2023-04-13T01:00:27.210Z,0.50
2023-04-13T01:03:01.686Z,0.50
2023-04-13T01:05:36.500Z,0.73
2023-04-13T01:08:15.324Z,0.60
2023-04-13T01:10:52.523Z,0.60
2023-04-13T01:13:25.016Z,0.60
2023-04-13T01:16:04.208Z,0.77
2023-04-13T01:18:41.598Z,0.63
2023-04-13T01:21:15.861Z,0.70
2023-04-13T01:24:07.042Z,0.88
2023-04-13T01:26:54.535Z,0.68
2023-04-13T01:29:28.104Z,0.50
2023-04-13T01:31:57.263Z,0.75
2023-04-13T01:34:26.609Z,1.27
2023-04-13T01:36:55.706Z,0.80
2023-04-13T01:39:31.849Z,1.02
2023-04-13T01:42:06.748Z,0.90
2023-04-13T01:44:37.249Z,0.90
2023-04-13T01:47:16.427Z,0.82
2023-04-13T01:49:58.829Z,0.80
2023-04-13T01:52:35.211Z,0.93
2023-04-13T01:55:07.005Z,0.90
2023-04-13T01:57:40.056Z,0.93
2023-04-13T02:00:14.278Z,0.90
2023-04-13T02:02:46.075Z,0.73
2023-04-13T02:05:14.481Z,0.70
2023-04-13T02:07:45.044Z,0.60
2023-04-13T02:10:13.565Z,0.40
2023-04-13T02:12:43.047Z,0.47
2023-04-13T02:15:12.956Z,0.85
2023-04-13T02:17:41.835Z,0.60
2023-04-13T02:20:12.248Z,0.70
2023-04-13T02:22:41.472Z,0.60
2023-04-13T02:25:11.363Z,0.73
2023-04-13T02:27:40.169Z,0.57
2023-04-13T02:30:09.985Z,0.43
2023-04-13T02:32:41.717Z,0.65
2023-04-13T02:35:10.922Z,0.50
2023-04-13T02:37:40.981Z,0.80
2023-04-13T02:40:13.625Z,0.65
2023-04-13T02:42:42.860Z,1.00
2023-04-13T02:45:13.430Z,0.70
2023-04-13T02:47:43.504Z,0.80
2023-04-13T02:50:13.588Z,0.95
2023-04-13T02:52:47.772Z,0.93
2023-04-13T02:55:16.612Z,1.00
2023-04-13T02:57:52.173Z,1.10
2023-04-13T03:00:21.830Z,1.00
2023-04-13T03:02:58.098Z,0.80
2023-04-13T03:05:32.215Z,0.88
2023-04-13T03:08:02.404Z,0.75
2023-04-13T03:10:31.723Z,0.70
2023-04-13T03:13:01.442Z,0.63
2023-04-13T03:15:30.866Z,0.80
2023-04-13T03:18:01.276Z,0.70
2023-04-13T03:20:31.974Z,0.70
2023-04-13T03:23:04.490Z,0.80
2023-04-13T03:25:35.564Z,0.63
2023-04-13T03:28:05.401Z,0.77
2023-04-13T03:30:38.975Z,0.50
2023-04-13T03:33:09.024Z,0.85
2023-04-13T03:35:39.446Z,0.90
2023-04-13T03:38:14.883Z,1.00
2023-04-13T03:40:47.422Z,0.70
2023-04-13T03:43:16.531Z,0.80
2023-04-13T03:45:50.670Z,0.60
2023-04-13T03:48:21.655Z,1.13
2023-04-13T03:50:50.462Z,1.02
2023-04-13T03:53:24.044Z,0.68
2023-04-13T03:55:55.298Z,0.77
2023-04-13T03:58:23.609Z,0.80
2023-04-13T04:00:52.948Z,1.00
2023-04-13T04:03:33.924Z,0.68
2023-04-13T04:06:08.329Z,0.80
2023-04-13T04:08:39.250Z,0.70
2023-04-13T04:11:15.026Z,0.55
2023-04-13T04:13:44.354Z,0.80
2023-04-13T04:16:13.598Z,0.90
2023-04-13T04:18:48.545Z,0.95
2023-04-13T04:21:21.785Z,0.80
2023-04-13T04:23:52.135Z,0.98
2023-04-13T04:26:25.433Z,1.02
2023-04-13T04:29:01.904Z,1.00
2023-04-13T04:31:36.740Z,0.70
2023-04-13T04:34:10.483Z,1.05
2023-04-13T04:36:41.860Z,0.70
2023-04-13T04:39:10.780Z,1.02
2023-04-13T04:41:47.857Z,0.90
2023-04-13T04:44:20.229Z,1.00
2023-04-13T04:46:49.051Z,1.00
2023-04-13T04:49:18.578Z,1.05
2023-04-13T04:51:46.964Z,0.73
2023-04-13T04:54:17.728Z,0.60
2023-04-13T04:56:48.273Z,0.70
2023-04-13T04:59:19.492Z,1.20
2023-04-13T05:01:57.640Z,0.75
2023-04-13T05:04:27.344Z,0.73
2023-04-13T05:06:55.943Z,0.93
2023-04-13T05:09:26.628Z,0.80
2023-04-13T05:11:57.979Z,0.93
2023-04-13T05:14:26.285Z,0.68
2023-04-13T05:16:54.927Z,0.80
2023-04-13T05:19:28.357Z,0.70
2023-04-13T05:22:03.091Z,0.88
2023-04-13T05:24:37.700Z,1.23
2023-04-13T05:27:11.843Z,1.10
2023-04-13T05:29:40.271Z,1.15
2023-04-13T05:32:09.135Z,0.98
2023-04-13T05:34:39.329Z,1.00
2023-04-13T05:37:15.700Z,1.10
2023-04-13T05:39:45.161Z,0.88
2023-04-13T05:42:14.391Z,1.10
2023-04-13T05:44:45.699Z,1.05
2023-04-13T05:47:15.793Z,1.23
2023-04-13T05:49:48.416Z,0.98
2023-04-13T05:52:21.300Z,1.00
2023-04-13T05:54:51.483Z,1.00
2023-04-13T05:57:22.109Z,1.10
2023-04-13T05:59:53.244Z,1.40
2023-04-13T06:02:26.358Z,1.10
2023-04-13T06:04:56.444Z,1.48
2023-04-13T06:07:26.037Z,0.90
2023-04-13T06:09:54.423Z,1.45
2023-04-13T06:12:23.909Z,0.88
2023-04-13T06:14:54.281Z,1.17
2023-04-13T06:17:22.687Z,0.88
2023-04-13T06:19:51.617Z,1.00
2023-04-13T06:22:21.354Z,0.82
2023-04-13T06:24:51.613Z,1.15
2023-04-13T06:27:20.648Z,1.30
2023-04-13T06:29:49.737Z,1.00
2023-04-13T06:32:18.477Z,1.58
2023-04-13T06:34:46.766Z,1.20
2023-04-13T06:37:17.794Z,1.60
2023-04-13T06:39:51.553Z,1.40
2023-04-13T06:42:20.608Z,1.15
2023-04-13T06:45:09.631Z,1.10
2023-04-13T06:47:44.393Z,1.27
2023-04-13T06:50:17.010Z,2.08
2023-04-13T06:52:48.540Z,1.48
2023-04-13T06:55:18.526Z,1.17
2023-04-13T06:57:47.008Z,1.48
2023-04-13T07:00:28.953Z,1.27
2023-04-13T07:03:00.478Z,1.23
2023-04-13T07:05:29.803Z,1.75
2023-04-13T07:08:05.632Z,1.23
2023-04-13T07:10:39.288Z,1.10
2023-04-13T07:13:14.383Z,1.27
2023-04-13T07:15:43.060Z,1.40
2023-04-13T07:18:11.575Z,1.52
2023-04-13T07:20:41.971Z,1.35
2023-04-13T07:23:11.425Z,1.30
2023-04-13T07:25:40.978Z,1.58
2023-04-13T07:28:16.998Z,1.08
2023-04-13T07:30:46.207Z,1.30
2023-04-13T07:33:16.039Z,1.33
2023-04-13T07:35:44.791Z,1.40
2023-04-13T07:38:15.789Z,1.52
2023-04-13T07:40:45.847Z,1.33
2023-04-13T07:43:14.321Z,1.02
2023-04-13T07:45:45.954Z,1.42
2023-04-13T07:48:14.970Z,1.30
2023-04-13T07:50:43.717Z,1.15
2023-04-13T07:53:16.896Z,1.25
2023-04-13T07:55:47.581Z,1.20
2023-04-13T07:58:16.144Z,1.73
2023-04-13T08:00:44.779Z,1.20
2023-04-13T08:03:13.353Z,1.45
2023-04-13T08:05:43.840Z,1.08
2023-04-13T08:08:13.460Z,1.55
2023-04-13T08:10:42.789Z,1.10
2023-04-13T08:13:12.681Z,1.23
2023-04-13T08:15:41.253Z,0.90
2023-04-13T08:18:09.764Z,1.00
2023-04-13T08:20:38.139Z,1.23
2023-04-13T08:23:07.917Z,1.00
2023-04-13T08:25:40.470Z,1.00
2023-04-13T08:28:09.530Z,0.90
2023-04-13T08:30:39.070Z,1.17
2023-04-13T08:33:08.565Z,0.88
2023-04-13T08:35:39.261Z,1.10
2023-04-13T08:38:10.067Z,1.25
2023-04-13T08:40:42.392Z,1.30
2023-04-13T08:43:17.496Z,1.10
2023-04-13T08:45:47.902Z,1.30
2023-04-13T08:48:19.267Z,0.90
2023-04-13T08:50:51.247Z,0.93
2023-04-13T08:53:19.943Z,1.20
2023-04-13T08:55:50.245Z,0.80
2023-04-13T08:58:23.302Z,0.88
2023-04-13T09:00:53.432Z,1.17
2023-04-13T09:03:26.094Z,0.70
2023-04-13T09:05:59.526Z,0.77
2023-04-13T09:08:35.821Z,1.15
2023-04-13T09:11:07.216Z,1.00
2023-04-13T09:13:35.702Z,0.73
2023-04-13T09:16:06.231Z,0.90
2023-04-13T09:18:50.938Z,0.73
2023-04-13T09:21:19.503Z,0.70
2023-04-13T09:23:55.280Z,0.60
2023-04-13T09:26:23.851Z,1.08
2023-04-13T09:28:57.591Z,0.80
2023-04-13T09:31:29.044Z,0.90
2023-04-13T09:33:57.477Z,0.95
2023-04-13T09:36:29.307Z,0.68
2023-04-13T09:38:58.328Z,0.77
2023-04-13T09:41:32.545Z,0.60
2023-04-13T09:44:01.484Z,0.80
2023-04-13T09:46:31.932Z,0.73
2023-04-13T09:49:02.799Z,0.70
2023-04-13T09:51:38.197Z,0.60
2023-04-13T09:54:06.871Z,0.70
2023-04-13T09:56:46.930Z,0.98
2023-04-13T09:59:15.657Z,0.73
2023-04-13T10:01:49.696Z,0.93
2023-04-13T10:04:18.248Z,0.50
2023-04-13T10:06:46.916Z,0.60
2023-04-13T10:09:15.995Z,0.98
2023-04-13T10:11:47.675Z,0.52
2023-04-13T10:14:19.918Z,0.60
2023-04-13T10:17:07.433Z,0.50
2023-04-13T10:19:41.214Z,0.40
2023-04-13T10:22:11.290Z,0.45
2023-04-13T10:24:40.800Z,0.50
2023-04-13T10:27:14.691Z,0.30
2023-04-13T10:29:43.045Z,0.20
2023-04-13T10:32:21.885Z,0.30
2023-04-13T10:34:50.421Z,0.50
2023-04-13T10:37:20.999Z,0.50
2023-04-13T10:39:50.276Z,0.40
2023-04-13T10:42:18.596Z,0.40
2023-04-13T10:44:48.509Z,0.45
2023-04-13T10:47:20.406Z,0.30
2023-04-13T10:49:50.156Z,0.45
2023-04-13T10:52:18.723Z,0.40
2023-04-13T10:54:47.165Z,0.47
2023-04-13T10:57:16.647Z,0.50
2023-04-13T10:59:57.861Z,0.50
2023-04-13T11:02:33.161Z,0.40
2023-04-13T11:05:02.484Z,0.32
2023-04-13T11:07:31.342Z,0.38
2023-04-13T11:12:31.432Z,0.43
2023-04-13T11:15:00.807Z,0.50
2023-04-13T11:17:30.613Z,0.50
2023-04-13T11:20:01.914Z,0.30
2023-04-13T11:22:36.436Z,0.30
2023-04-13T11:25:09.267Z,0.52
2023-04-13T11:27:38.605Z,0.30
2023-04-13T11:30:09.244Z,0.30
2023-04-13T11:32:43.439Z,0.20
2023-04-13T11:35:14.561Z,0.20
2023-04-13T11:37:44.228Z,0.40
2023-04-13T11:40:17.374Z,0.40
2023-04-13T11:42:47.361Z,0.20
2023-04-13T11:45:17.338Z,0.38
2023-04-13T11:47:48.280Z,0.60
2023-04-13T11:50:17.555Z,0.40
2023-04-13T11:52:47.657Z,0.50
2023-04-13T11:55:23.160Z,0.60
2023-04-13T11:57:53.287Z,0.30
2023-04-13T12:00:25.778Z,0.55
2023-04-13T12:05:31.499Z,0.10
2023-04-13T12:08:01.104Z,0.20
2023-04-13T12:13:17.236Z,0.20
2023-04-13T12:16:05.481Z,0.20
2023-04-13T12:28:09.082Z,0.40
2023-04-13T12:30:37.602Z,0.20
2023-04-13T12:33:06.001Z,0.22
2023-04-13T12:35:34.424Z,0.10
2023-04-13T12:38:02.926Z,0.15
2023-04-13T12:40:31.339Z,0.30
2023-04-13T12:42:59.885Z,0.20
2023-04-13T12:45:31.025Z,0.28
2023-04-13T12:47:59.622Z,0.25
2023-04-13T12:50:28.005Z,0.20
2023-04-13T12:52:56.425Z,0.22
2023-04-13T12:55:24.936Z,0.40
2023-04-13T12:57:53.223Z,0.32
2023-04-13T13:00:22.542Z,0.30
2023-04-13T13:03:02.819Z,0.30
2023-04-13T13:05:38.874Z,0.20
2023-04-13T13:08:07.323Z,0.32
2023-04-13T13:10:36.917Z,0.20
2023-04-13T13:13:06.218Z,0.20
2023-04-13T13:15:35.050Z,0.30
2023-04-13T13:18:06.811Z,0.35
2023-04-13T13:20:40.954Z,0.22
2023-04-13T13:23:11.560Z,0.30
2023-04-13T13:25:42.377Z,0.20
2023-04-13T13:28:15.531Z,0.20
2023-04-13T13:30:44.075Z,0.35
2023-04-13T13:33:13.885Z,0.30
2023-04-13T13:35:42.256Z,0.40
2023-04-13T13:38:10.622Z,0.30
2023-04-13T13:40:38.952Z,0.30
2023-04-13T13:43:07.195Z,0.30
2023-04-13T13:45:35.661Z,0.40
2023-04-13T13:48:06.737Z,3.55
2023-04-13T13:50:45.746Z,0.75
2023-04-13T13:53:15.378Z,0.50
2023-04-13T13:55:44.215Z,0.70
2023-04-13T13:58:12.505Z,0.47
2023-04-13T14:00:40.815Z,0.77
2023-04-13T14:03:09.384Z,0.43
2023-04-13T14:05:38.190Z,0.50
2023-04-13T14:08:08.117Z,0.52
2023-04-13T14:10:36.727Z,0.50
2023-04-13T14:13:05.049Z,0.50
2023-04-13T14:15:33.616Z,0.30
2023-04-13T14:18:10.856Z,0.50
2023-04-13T14:20:40.693Z,0.40
2023-04-13T14:23:10.533Z,0.60
2023-04-13T14:25:41.032Z,0.30
2023-04-13T14:28:11.133Z,0.55
2023-04-13T14:30:40.712Z,0.50
2023-04-13T14:33:09.122Z,0.40
2023-04-13T14:35:38.716Z,0.40
2023-04-13T14:38:08.158Z,0.30
2023-04-13T14:40:38.862Z,0.47
2023-04-13T14:43:07.772Z,1.30
2023-04-13T14:45:36.783Z,0.50
2023-04-13T14:48:05.837Z,0.57
2023-04-13T14:50:34.497Z,0.52
2023-04-13T14:53:07.304Z,0.60
2023-04-13T14:55:37.173Z,0.55
2023-04-13T14:58:05.653Z,0.68
2023-04-13T15:00:41.322Z,0.40
2023-04-13T15:03:11.252Z,0.52
2023-04-13T15:05:40.400Z,0.63
2023-04-13T15:08:11.382Z,1.10
2023-04-13T15:10:42.369Z,0.45
2023-04-13T15:13:10.864Z,0.80
2023-04-13T15:15:40.376Z,1.10
2023-04-13T15:18:09.379Z,0.50
2023-04-13T15:20:37.698Z,0.60
2023-04-13T15:23:06.353Z,0.88
2023-04-13T15:25:34.663Z,0.43
2023-04-13T15:28:04.524Z,0.73
2023-04-13T15:30:34.607Z,0.60
2023-04-13T15:33:04.396Z,0.70
2023-04-13T15:35:35.615Z,0.40
2023-04-13T15:38:04.355Z,0.80
2023-04-13T15:40:34.726Z,0.80
2023-04-13T15:43:04.986Z,0.80
2023-04-13T15:45:33.763Z,0.50
2023-04-13T15:48:02.936Z,0.60
2023-04-13T15:50:31.399Z,0.70
2023-04-13T15:52:59.669Z,0.40
2023-04-13T15:55:28.522Z,0.85
2023-04-13T15:57:57.248Z,0.60
2023-04-13T16:00:27.530Z,0.77
2023-04-13T16:02:56.994Z,0.63
2023-04-13T16:05:25.525Z,0.70
2023-04-13T16:07:54.759Z,0.60
2023-04-13T16:10:23.182Z,0.68
2023-04-13T16:12:54.666Z,0.80
2023-04-13T16:15:24.171Z,0.50
2023-04-13T16:17:56.716Z,0.40
2023-04-13T16:20:28.337Z,0.47
2023-04-13T16:22:59.397Z,0.60
2023-04-13T16:25:27.943Z,0.50
2023-04-13T16:27:56.591Z,0.50
2023-04-13T16:30:25.192Z,0.40
2023-04-13T16:32:54.842Z,0.40
2023-04-13T16:35:23.380Z,0.47
2023-04-13T16:37:51.943Z,0.57
2023-04-13T16:40:20.548Z,0.60
2023-04-13T16:42:48.945Z,0.40
2023-04-13T16:45:17.281Z,0.32
2023-04-13T16:47:46.201Z,0.60
2023-04-13T16:50:16.235Z,0.40
2023-04-13T16:52:44.609Z,0.43
2023-04-13T16:55:16.175Z,0.40
2023-04-13T16:57:45.206Z,0.40
2023-04-13T17:00:14.862Z,0.40
2023-04-13T17:02:44.284Z,0.40
2023-04-13T17:05:13.557Z,0.60
2023-04-13T17:07:47.023Z,0.60
2023-04-13T17:10:17.439Z,1.08
2023-04-13T17:12:46.530Z,0.68
2023-04-13T17:15:15.052Z,0.65
2023-04-13T17:17:43.415Z,0.70
2023-04-13T17:20:13.792Z,0.63
2023-04-13T17:22:46.053Z,0.50
2023-04-13T17:25:14.561Z,0.52
2023-04-13T17:27:44.947Z,0.40
2023-04-13T17:30:14.742Z,0.40
2023-04-13T17:32:43.537Z,0.73
2023-04-13T17:35:12.453Z,0.43
2023-04-13T17:37:40.882Z,0.40
2023-04-13T17:40:11.916Z,0.82
2023-04-13T17:42:40.464Z,0.60
2023-04-13T17:45:10.045Z,0.40
2023-04-13T17:47:38.591Z,1.00
2023-04-13T17:50:08.354Z,0.45
2023-04-13T17:52:37.008Z,0.60
2023-04-13T17:55:06.077Z,1.08
2023-04-13T17:57:36.087Z,0.75
2023-04-13T18:00:05.142Z,1.23
2023-04-13T18:02:33.905Z,1.15
2023-04-13T18:05:02.733Z,1.23
2023-04-13T18:07:31.066Z,1.00
2023-04-13T18:09:59.539Z,1.00
2023-04-13T18:12:27.852Z,0.82
2023-04-13T18:14:57.683Z,0.70
2023-04-13T18:17:26.354Z,0.90
2023-04-13T18:19:54.960Z,0.90
2023-04-13T18:22:23.304Z,1.02
2023-04-13T18:24:51.746Z,0.60
2023-04-13T18:27:20.120Z,0.70
2023-04-13T18:29:49.251Z,0.80
2023-04-13T18:32:19.007Z,0.77
2023-04-13T18:34:47.519Z,0.98
2023-04-13T18:37:16.007Z,1.17
2023-04-13T18:39:44.863Z,1.00
2023-04-13T18:42:13.442Z,0.93
2023-04-13T18:44:41.845Z,1.00
2023-04-13T18:47:10.248Z,0.90
2023-04-13T18:49:40.128Z,0.70
2023-04-13T18:52:08.785Z,1.00
2023-04-13T18:54:37.481Z,1.08
2023-04-13T18:57:06.106Z,1.15
2023-04-13T18:59:34.708Z,1.17
2023-04-13T19:02:03.196Z,1.20
2023-04-13T19:04:31.781Z,1.30
2023-04-13T19:07:01.568Z,1.15
2023-04-13T19:09:31.200Z,0.85
2023-04-13T19:12:02.342Z,1.05
2023-04-13T19:14:31.178Z,0.90
2023-04-13T19:17:00.365Z,0.80
2023-04-13T19:19:28.888Z,1.60
2023-04-13T19:21:58.253Z,0.85
2023-04-13T19:24:28.205Z,0.90
2023-04-13T19:26:57.823Z,1.10
2023-04-13T19:29:30.156Z,0.80
2023-04-13T19:31:59.127Z,1.23
2023-04-13T19:34:27.570Z,1.00
2023-04-13T19:36:56.065Z,1.20
2023-04-13T19:39:25.022Z,1.13
2023-04-13T19:41:55.481Z,1.17
2023-04-13T19:44:24.081Z,1.02
2023-04-13T19:46:52.634Z,1.13
2023-04-13T19:49:21.337Z,0.90
2023-04-13T19:51:49.815Z,1.05
2023-04-13T19:54:18.354Z,0.85
2023-04-13T19:56:46.782Z,0.85
2023-04-13T19:59:17.002Z,0.98
2023-04-13T20:01:45.985Z,0.85
2023-04-13T20:04:14.915Z,1.13
2023-04-13T20:06:43.459Z,0.80
2023-04-13T20:09:13.258Z,0.90
2023-04-13T20:11:42.230Z,0.90
2023-04-13T20:14:11.516Z,0.85
2023-04-13T20:16:41.332Z,1.10
2023-04-13T20:19:10.388Z,0.90
2023-04-13T20:21:41.847Z,1.00
2023-04-13T20:24:10.399Z,0.75
2023-04-13T20:26:39.665Z,0.63
2023-04-13T20:29:08.049Z,0.70
2023-04-13T20:31:38.127Z,0.95
2023-04-13T20:34:09.689Z,0.80
2023-04-13T20:36:38.546Z,0.80
2023-04-13T20:39:09.629Z,0.82
2023-04-13T20:41:38.919Z,0.70
2023-04-13T20:44:09.800Z,0.98
2023-04-13T20:46:41.952Z,0.80
2023-04-13T20:49:12.441Z,0.70
2023-04-13T20:51:40.988Z,0.70
2023-04-13T20:54:10.021Z,0.80
2023-04-13T20:56:38.576Z,1.20
2023-04-13T20:59:07.516Z,1.02
2023-04-13T21:01:37.513Z,0.68
2023-04-13T21:04:06.157Z,0.80
2023-04-13T21:06:37.245Z,0.80
2023-04-13T21:09:06.169Z,0.57
2023-04-13T21:11:34.694Z,1.00
2023-04-13T21:14:03.848Z,0.93
2023-04-13T21:16:32.829Z,0.82
2023-04-13T21:19:01.397Z,0.70
2023-04-13T21:21:29.842Z,0.90
2023-04-13T21:24:00.583Z,1.02
2023-04-13T21:26:29.239Z,1.00
2023-04-13T21:28:58.093Z,0.90
2023-04-13T21:31:27.349Z,1.00
2023-04-13T21:33:56.486Z,1.17
2023-04-13T21:38:57.288Z,1.27
2023-04-13T21:41:26.992Z,1.45
2023-04-13T21:43:55.599Z,1.20
2023-04-13T21:46:25.101Z,1.30
2023-04-13T21:48:53.916Z,1.58
2023-04-13T21:51:25.792Z,1.90
2023-04-13T21:53:59.215Z,2.03
2023-04-13T21:56:35.499Z,2.03
2023-04-13T21:59:04.075Z,2.80
2023-04-13T22:01:32.530Z,2.80
2023-04-13T22:04:01.063Z,3.13
2023-04-13T22:06:31.233Z,2.60
2023-04-13T22:08:59.985Z,3.63
2023-04-13T22:11:28.705Z,3.38
2023-04-13T22:14:00.257Z,3.67
2023-04-13T22:16:28.794Z,2.45
2023-04-13T22:18:57.569Z,2.10
2023-04-13T22:21:26.632Z,2.10
2023-04-13T22:23:55.006Z,2.08
2023-04-13T22:26:25.019Z,1.90
2023-04-13T22:28:53.506Z,2.30
2023-04-13T22:31:23.199Z,2.17
2023-04-13T22:33:51.687Z,2.20
2023-04-13T22:36:21.578Z,1.88
2023-04-13T22:38:50.875Z,1.90
2023-04-13T22:41:19.348Z,1.70
2023-04-13T22:43:47.857Z,1.70
2023-04-13T22:46:16.404Z,1.90
2023-04-13T22:48:46.355Z,2.00
2023-04-13T22:51:14.762Z,1.95
2023-04-13T22:53:43.293Z,2.25
2023-04-13T22:56:11.665Z,2.28
2023-04-13T22:58:40.070Z,2.10
2023-04-13T23:01:08.517Z,2.70
2023-04-13T23:03:37.523Z,2.58
2023-04-13T23:06:07.792Z,2.67
2023-04-13T23:08:36.187Z,2.22
2023-04-13T23:11:12.226Z,2.65
2023-04-13T23:13:41.754Z,2.60
2023-04-13T23:16:10.170Z,2.67
2023-04-13T23:18:38.630Z,2.42
2023-04-13T23:21:12.201Z,2.60
2023-04-13T23:23:41.257Z,2.70
2023-04-13T23:26:09.823Z,2.58
2023-04-13T23:28:38.310Z,2.47
2023-04-13T23:31:07.506Z,2.50
2023-04-13T23:33:36.504Z,2.10
2023-04-13T23:36:05.716Z,2.10
2023-04-13T23:38:36.238Z,2.30
2023-04-13T23:41:04.831Z,3.35
2023-04-13T23:43:33.616Z,3.70
2023-04-13T23:46:02.227Z,3.63
2023-04-13T23:48:31.355Z,3.85
2023-04-13T23:50:59.900Z,3.53
2023-04-13T23:53:28.471Z,3.75
2023-04-13T23:55:58.865Z,3.92
2023-04-13T23:58:27.398Z,3.42
